Time;durP1;ratioP1;P1;durP2;ratioP2;P2;SDS_P1;SDS_P2;PMS_P1;PMS_P2;Temp;Humidity;BMP_temperature;BMP_pressure;BME280_temperature;BME280_humidity;BME280_pressure;Samples;Min_cycle;Max_cycle;Signal;HPM_P1;HPM_P2
2024/01/23 00:01:12;;;;;;;6.93;1.20;;;;;;;;;;5017102;28;20029;-58
2024/01/23 00:03:37;;;;;;;5.22;0.85;;;;;;;;;;5032569;28;20440;-63
2024/01/23 00:06:02;;;;;;;5.13;0.93;;;;;;;;;;5025179;28;20083;-57
2024/01/23 00:08:28;;;;;;;6.35;1.02;;;;;;;;;;5031993;28;20052;-57
2024/01/23 00:10:53;;;;;;;8.02;1.10;;;;;;;;;;5032110;28;20053;-57
2024/01/23 00:13:18;;;;;;;7.60;0.90;;;;;;;;;;5032509;28;20010;-57
2024/01/23 00:15:43;;;;;;;7.22;1.20;;;;;;;;;;5029819;28;20429;-57
2024/01/23 00:18:08;;;;;;;7.80;1.10;;;;;;;;;;5032945;28;20025;-56
2024/01/23 00:20:33;;;;;;;4.93;0.87;;;;;;;;;;5014013;28;20026;-56
2024/01/23 00:22:58;;;;;;;6.85;1.00;;;;;;;;;;5013972;28;20506;-57
2024/01/23 00:25:24;;;;;;;4.87;0.90;;;;;;;;;;5021898;28;20052;-58
2024/01/23 00:27:49;;;;;;;6.63;0.70;;;;;;;;;;5033718;28;20041;-57
2024/01/23 00:30:14;;;;;;;11.70;1.48;;;;;;;;;;5032364;28;20168;-56
2024/01/23 00:32:39;;;;;;;7.60;1.30;;;;;;;;;;5021033;28;20018;-57
2024/01/23 00:35:05;;;;;;;4.32;0.98;;;;;;;;;;5026312;28;20021;-57
2024/01/23 00:37:31;;;;;;;13.43;1.00;;;;;;;;;;5016555;28;20029;-57
2024/01/23 00:39:56;;;;;;;6.53;1.02;;;;;;;;;;5029629;28;20096;-58
2024/01/23 00:42:22;;;;;;;4.50;0.70;;;;;;;;;;5026463;28;20046;-56
2024/01/23 00:44:47;;;;;;;4.80;0.80;;;;;;;;;;5022559;28;20028;-58
2024/01/23 00:47:12;;;;;;;7.63;0.93;;;;;;;;;;5027427;28;20935;-57
2024/01/23 00:49:38;;;;;;;4.73;0.80;;;;;;;;;;5032243;28;20018;-56
2024/01/23 00:52:03;;;;;;;9.03;1.00;;;;;;;;;;5032417;28;20451;-58
2024/01/23 00:54:28;;;;;;;9.03;1.33;;;;;;;;;;5013648;28;20037;-57
2024/01/23 00:56:53;;;;;;;7.78;1.48;;;;;;;;;;5012965;28;20475;-57
2024/01/23 00:59:18;;;;;;;6.43;0.98;;;;;;;;;;5025882;28;20025;-56
2024/01/23 01:01:43;;;;;;;4.68;0.80;;;;;;;;;;5029921;28;20473;-57
2024/01/23 01:04:08;;;;;;;9.43;0.90;;;;;;;;;;5031000;28;20114;-57
2024/01/23 01:06:34;;;;;;;6.83;1.10;;;;;;;;;;5033445;28;20017;-58
2024/01/23 01:08:59;;;;;;;5.83;1.10;;;;;;;;;;5034047;28;20029;-57
2024/01/23 01:11:24;;;;;;;8.25;1.02;;;;;;;;;;5034662;28;20020;-58
2024/01/23 01:13:50;;;;;;;7.63;0.82;;;;;;;;;;5032650;28;24103;-56
2024/01/23 01:16:15;;;;;;;6.90;1.07;;;;;;;;;;5021578;28;20029;-56
2024/01/23 01:18:40;;;;;;;5.32;0.80;;;;;;;;;;5032238;28;20013;-56
2024/01/23 01:21:05;;;;;;;7.57;0.88;;;;;;;;;;5025686;28;20021;-57
2024/01/23 01:23:31;;;;;;;5.53;0.85;;;;;;;;;;5032388;28;20152;-56
2024/01/23 01:25:56;;;;;;;7.95;1.00;;;;;;;;;;5030889;28;20071;-56
2024/01/23 01:28:21;;;;;;;5.75;0.93;;;;;;;;;;5012903;28;20030;-57
2024/01/23 01:30:46;;;;;;;7.03;1.07;;;;;;;;;;5022418;28;20017;-56
2024/01/23 01:33:11;;;;;;;7.88;0.90;;;;;;;;;;5024784;28;20029;-56
2024/01/23 01:35:36;;;;;;;7.13;1.05;;;;;;;;;;5032698;28;20021;-56
2024/01/23 01:38:02;;;;;;;7.38;1.08;;;;;;;;;;5032143;28;20036;-57
2024/01/23 01:40:27;;;;;;;7.35;1.02;;;;;;;;;;5022360;28;20037;-58
2024/01/23 01:42:52;;;;;;;5.53;0.90;;;;;;;;;;5016596;28;20022;-56
2024/01/23 01:45:18;;;;;;;7.90;0.88;;;;;;;;;;5022969;28;20033;-57
2024/01/23 01:47:43;;;;;;;10.73;1.20;;;;;;;;;;5025467;28;20103;-57
2024/01/23 01:50:08;;;;;;;5.80;0.87;;;;;;;;;;5030458;28;20029;-58
2024/01/23 01:52:35;;;;;;;6.63;0.90;;;;;;;;;;5032358;28;20032;-58
2024/01/23 01:55:00;;;;;;;6.38;1.25;;;;;;;;;;5037789;28;20086;-61
2024/01/23 01:57:28;;;;;;;5.88;0.95;;;;;;;;;;5035154;28;20470;-57
2024/01/23 01:59:53;;;;;;;7.90;0.80;;;;;;;;;;5029969;28;20484;-57
2024/01/23 02:02:19;;;;;;;6.97;1.13;;;;;;;;;;5021070;28;20022;-57
2024/01/23 02:04:45;;;;;;;6.30;1.08;;;;;;;;;;5024316;28;20025;-57
2024/01/23 02:07:10;;;;;;;7.73;1.10;;;;;;;;;;5030779;28;20021;-58
2024/01/23 02:09:35;;;;;;;8.93;1.10;;;;;;;;;;5017538;28;20026;-56
2024/01/23 02:12:00;;;;;;;8.13;0.97;;;;;;;;;;5011474;28;20040;-56
2024/01/23 02:14:26;;;;;;;6.93;0.90;;;;;;;;;;5021721;28;20013;-57
2024/01/23 02:16:51;;;;;;;8.55;1.30;;;;;;;;;;5030260;28;20088;-57
2024/01/23 02:19:16;;;;;;;4.82;0.90;;;;;;;;;;5031124;28;20043;-58
2024/01/23 02:21:42;;;;;;;6.83;1.00;;;;;;;;;;5024928;28;20030;-57
2024/01/23 02:24:07;;;;;;;6.63;0.85;;;;;;;;;;5036829;28;20104;-57
2024/01/23 02:26:32;;;;;;;6.87;1.10;;;;;;;;;;5038811;28;20524;-57
2024/01/23 02:28:57;;;;;;;7.63;1.20;;;;;;;;;;5048547;28;20018;-59
2024/01/23 02:31:22;;;;;;;6.75;1.33;;;;;;;;;;5052130;28;20005;-57
2024/01/23 02:33:47;;;;;;;9.93;1.17;;;;;;;;;;5052925;28;20057;-59
2024/01/23 02:36:12;;;;;;;7.57;1.00;;;;;;;;;;5051467;28;20052;-58
2024/01/23 02:38:38;;;;;;;4.13;0.88;;;;;;;;;;5037906;28;20034;-57
2024/01/23 02:41:03;;;;;;;6.93;0.90;;;;;;;;;;5034835;28;20029;-57
2024/01/23 02:43:28;;;;;;;5.75;1.00;;;;;;;;;;5034599;28;20074;-57
2024/01/23 02:45:53;;;;;;;5.47;0.75;;;;;;;;;;5027511;28;20406;-57
2024/01/23 02:48:18;;;;;;;6.27;0.90;;;;;;;;;;5023566;28;20091;-57
2024/01/23 02:50:44;;;;;;;4.68;0.85;;;;;;;;;;5027635;28;20022;-59
2024/01/23 02:53:09;;;;;;;5.97;1.10;;;;;;;;;;5032084;28;20021;-58
2024/01/23 02:55:34;;;;;;;5.83;0.90;;;;;;;;;;5034327;28;20029;-57
2024/01/23 02:57:59;;;;;;;5.97;0.80;;;;;;;;;;5013579;28;20124;-57
2024/01/23 03:00:24;;;;;;;6.40;0.80;;;;;;;;;;5025995;28;20022;-57
2024/01/23 03:02:49;;;;;;;6.37;1.17;;;;;;;;;;5026341;28;20021;-57
2024/01/23 03:05:14;;;;;;;5.77;0.70;;;;;;;;;;5041949;28;20021;-57
2024/01/23 03:07:40;;;;;;;9.38;1.75;;;;;;;;;;5032410;28;20097;-57
2024/01/23 03:10:07;;;;;;;5.72;1.00;;;;;;;;;;5032860;28;20406;-57
2024/01/23 03:12:32;;;;;;;6.85;0.90;;;;;;;;;;5032644;28;20064;-57
2024/01/23 03:14:57;;;;;;;6.50;0.95;;;;;;;;;;5032162;28;20037;-58
2024/01/23 03:17:22;;;;;;;4.95;0.88;;;;;;;;;;5033567;28;20020;-56
2024/01/23 03:19:48;;;;;;;5.23;0.90;;;;;;;;;;5028957;28;20053;-57
2024/01/23 03:22:13;;;;;;;7.93;0.90;;;;;;;;;;5026301;28;20026;-57
2024/01/23 03:24:39;;;;;;;10.73;1.33;;;;;;;;;;5014040;28;20421;-57
2024/01/23 03:27:07;;;;;;;6.43;1.05;;;;;;;;;;5013860;28;20105;-57
2024/01/23 03:29:40;;;;;;;9.23;1.35;;;;;;;;;;5027365;28;20032;-56
2024/01/23 03:32:06;;;;;;;5.32;0.80;;;;;;;;;;5033086;28;20072;-57
2024/01/23 03:34:32;;;;;;;7.05;1.00;;;;;;;;;;5032713;28;20021;-57
2024/01/23 03:36:57;;;;;;;6.65;0.90;;;;;;;;;;5034472;28;20039;-56
2024/01/23 03:39:22;;;;;;;4.78;0.90;;;;;;;;;;5020443;28;20169;-58
2024/01/23 03:41:47;;;;;;;10.02;1.05;;;;;;;;;;5030069;28;20029;-57
2024/01/23 03:44:12;;;;;;;6.13;0.73;;;;;;;;;;5023005;28;20393;-57
2024/01/23 03:46:38;;;;;;;3.53;0.57;;;;;;;;;;5030805;28;20030;-57
2024/01/23 03:49:03;;;;;;;3.33;0.40;;;;;;;;;;5031969;28;20041;-58
2024/01/23 03:51:28;;;;;;;9.33;1.53;;;;;;;;;;5032771;28;20473;-58
2024/01/23 03:53:53;;;;;;;5.70;0.75;;;;;;;;;;5031739;28;20010;-56
2024/01/23 03:56:18;;;;;;;3.45;0.70;;;;;;;;;;5017868;28;20040;-56
2024/01/23 03:58:44;;;;;;;5.40;0.95;;;;;;;;;;5032957;28;20574;-57
2024/01/23 04:01:09;;;;;;;4.73;0.90;;;;;;;;;;5025058;28;20390;-57
2024/01/23 04:03:34;;;;;;;4.20;0.90;;;;;;;;;;5013958;28;20022;-56
2024/01/23 04:06:00;;;;;;;3.80;0.90;;;;;;;;;;5026860;28;20045;-58
2024/01/23 04:08:25;;;;;;;5.67;0.80;;;;;;;;;;5026711;28;20082;-57
2024/01/23 04:10:50;;;;;;;10.20;1.00;;;;;;;;;;5017282;28;20018;-55
2024/01/23 04:13:15;;;;;;;8.63;1.20;;;;;;;;;;5018588;28;20041;-57
2024/01/23 04:15:40;;;;;;;5.80;1.00;;;;;;;;;;5033806;28;20504;-58
2024/01/23 04:18:06;;;;;;;8.33;1.17;;;;;;;;;;5029257;28;20397;-57
2024/01/23 04:20:31;;;;;;;6.28;0.98;;;;;;;;;;5035792;28;20032;-57
2024/01/23 04:22:56;;;;;;;5.30;0.88;;;;;;;;;;5037842;28;20017;-58
2024/01/23 04:25:21;;;;;;;5.00;0.98;;;;;;;;;;5028835;28;20030;-57
2024/01/23 04:27:47;;;;;;;11.98;1.40;;;;;;;;;;5034486;28;20419;-57
2024/01/23 04:30:12;;;;;;;12.73;1.73;;;;;;;;;;5031079;28;20087;-58
2024/01/23 04:32:37;;;;;;;6.17;1.00;;;;;;;;;;5033070;28;20017;-57
2024/01/23 04:35:02;;;;;;;5.97;0.90;;;;;;;;;;5032030;28;20463;-57
2024/01/23 04:37:28;;;;;;;6.10;1.00;;;;;;;;;;5031933;28;20067;-57
2024/01/23 04:39:53;;;;;;;6.65;1.00;;;;;;;;;;5028355;28;20485;-58
2024/01/23 04:42:18;;;;;;;7.65;1.40;;;;;;;;;;5045059;28;20027;-57
2024/01/23 04:44:43;;;;;;;6.10;1.20;;;;;;;;;;5045411;28;20073;-59
2024/01/23 04:47:08;;;;;;;8.00;1.07;;;;;;;;;;5044033;28;20044;-60
2024/01/23 04:49:34;;;;;;;7.33;0.97;;;;;;;;;;5034344;28;20425;-57
2024/01/23 04:51:59;;;;;;;6.75;0.98;;;;;;;;;;5034318;28;20382;-59
2024/01/23 04:54:24;;;;;;;9.10;1.33;;;;;;;;;;5031026;28;20022;-56
2024/01/23 04:56:49;;;;;;;6.93;1.05;;;;;;;;;;5036144;28;20032;-58
2024/01/23 04:59:14;;;;;;;6.13;1.27;;;;;;;;;;5029611;28;20025;-56
2024/01/23 05:01:40;;;;;;;6.10;1.00;;;;;;;;;;5030138;28;20021;-57
2024/01/23 05:04:05;;;;;;;6.00;1.38;;;;;;;;;;5031982;28;20031;-57
2024/01/23 05:06:30;;;;;;;6.47;0.95;;;;;;;;;;5025745;28;20474;-58
2024/01/23 05:08:55;;;;;;;7.27;1.33;;;;;;;;;;5027789;28;20037;-58
2024/01/23 05:11:20;;;;;;;6.10;0.82;;;;;;;;;;5023705;28;20032;-57
2024/01/23 05:13:45;;;;;;;6.05;0.90;;;;;;;;;;5040468;28;20033;-57
2024/01/23 05:16:11;;;;;;;6.90;1.02;;;;;;;;;;5037827;28;20022;-56
2024/01/23 05:18:36;;;;;;;7.82;1.38;;;;;;;;;;5035213;28;20052;-56
2024/01/23 05:21:01;;;;;;;8.43;1.27;;;;;;;;;;5026356;28;20777;-58
2024/01/23 05:23:26;;;;;;;5.60;1.05;;;;;;;;;;5030539;28;20017;-58
2024/01/23 05:25:51;;;;;;;8.53;1.13;;;;;;;;;;5032524;28;20135;-57
2024/01/23 05:28:16;;;;;;;6.73;1.10;;;;;;;;;;5033485;28;20036;-58
2024/01/23 05:30:42;;;;;;;6.25;1.02;;;;;;;;;;5028603;28;20018;-56
2024/01/23 05:33:07;;;;;;;5.57;0.67;;;;;;;;;;5028925;28;20079;-56
2024/01/23 05:35:32;;;;;;;6.43;1.15;;;;;;;;;;5017008;28;20025;-58
2024/01/23 05:37:58;;;;;;;7.22;1.08;;;;;;;;;;5024752;28;20344;-57
2024/01/23 05:40:23;;;;;;;7.55;1.08;;;;;;;;;;5026208;28;20135;-58
2024/01/23 05:42:48;;;;;;;6.43;0.82;;;;;;;;;;5025444;28;20048;-58
2024/01/23 05:45:13;;;;;;;6.50;1.08;;;;;;;;;;5024509;28;20075;-56
2024/01/23 05:47:38;;;;;;;7.00;0.90;;;;;;;;;;5026221;28;20025;-58
2024/01/23 05:50:04;;;;;;;6.85;0.90;;;;;;;;;;5029852;28;20071;-57
2024/01/23 05:52:29;;;;;;;3.70;0.80;;;;;;;;;;5022555;28;20025;-57
2024/01/23 05:54:54;;;;;;;4.18;0.80;;;;;;;;;;5026696;28;20021;-59
2024/01/23 05:57:19;;;;;;;5.70;0.70;;;;;;;;;;5038398;28;20030;-58
2024/01/23 05:59:44;;;;;;;5.43;0.80;;;;;;;;;;5032035;28;20029;-56
2024/01/23 06:02:09;;;;;;;4.47;0.90;;;;;;;;;;5036249;28;20053;-56
2024/01/23 06:04:35;;;;;;;4.23;0.80;;;;;;;;;;5033814;28;20453;-57
2024/01/23 06:07:00;;;;;;;4.47;0.80;;;;;;;;;;5025619;28;20033;-58
2024/01/23 06:09:25;;;;;;;5.40;0.93;;;;;;;;;;5028356;28;20974;-56
2024/01/23 06:11:52;;;;;;;4.47;0.80;;;;;;;;;;5027237;28;20021;-59
2024/01/23 06:14:17;;;;;;;;;;;;;;;;;;5029634;28;20105;-56
2024/01/23 06:16:42;;;;;;;3.25;0.75;;;;;;;;;;5026201;28;19955;-57
2024/01/23 06:19:08;;;;;;;6.20;0.77;;;;;;;;;;5023008;28;20022;-58
2024/01/23 06:21:33;;;;;;;4.80;1.65;;;;;;;;;;5027557;28;20049;-57
2024/01/23 06:23:59;;;;;;;5.53;0.80;;;;;;;;;;5031741;28;20485;-57
2024/01/23 06:26:24;;;;;;;3.83;0.90;;;;;;;;;;5034104;28;20029;-57
2024/01/23 06:28:49;;;;;;;4.13;0.70;;;;;;;;;;5030809;28;20397;-56
2024/01/23 06:31:14;;;;;;;3.97;0.70;;;;;;;;;;5028403;28;20030;-57
2024/01/23 06:33:40;;;;;;;4.80;0.80;;;;;;;;;;5024451;28;20489;-56
2024/01/23 06:36:05;;;;;;;6.32;0.80;;;;;;;;;;5031519;28;20374;-58
2024/01/23 06:38:30;;;;;;;5.97;1.13;;;;;;;;;;5032214;28;20064;-59
2024/01/23 06:40:57;;;;;;;6.00;0.90;;;;;;;;;;5047033;28;20025;-57
2024/01/23 06:43:22;;;;;;;4.40;0.60;;;;;;;;;;5033452;28;20104;-57
2024/01/23 06:45:47;;;;;;;3.15;0.80;;;;;;;;;;5029405;28;20018;-58
2024/01/23 06:48:12;;;;;;;4.10;0.80;;;;;;;;;;5030927;28;20034;-58
2024/01/23 06:50:37;;;;;;;4.67;1.10;;;;;;;;;;5021526;28;20512;-57
2024/01/23 06:53:03;;;;;;;7.50;0.85;;;;;;;;;;5025618;28;20029;-58
2024/01/23 06:55:28;;;;;;;5.28;1.10;;;;;;;;;;5024098;28;20089;-57
2024/01/23 06:57:53;;;;;;;5.47;0.90;;;;;;;;;;5028114;28;20096;-56
2024/01/23 07:00:19;;;;;;;4.32;0.98;;;;;;;;;;5018884;28;20041;-58
2024/01/23 07:02:46;;;;;;;4.38;0.73;;;;;;;;;;5025576;28;20386;-58
2024/01/23 07:05:11;;;;;;;4.47;0.90;;;;;;;;;;5025938;28;20018;-56
2024/01/23 07:07:36;;;;;;;6.07;0.90;;;;;;;;;;5025534;28;20390;-57
2024/01/23 07:10:02;;;;;;;6.00;0.90;;;;;;;;;;5027550;28;20436;-56
2024/01/23 07:12:28;;;;;;;4.45;0.90;;;;;;;;;;5020158;28;20448;-57
2024/01/23 07:14:53;;;;;;;4.22;1.10;;;;;;;;;;5021360;28;20021;-56
2024/01/23 07:17:18;;;;;;;7.17;1.20;;;;;;;;;;5032400;28;20115;-56
2024/01/23 07:19:44;;;;;;;4.10;0.70;;;;;;;;;;5033993;28;20017;-57
2024/01/23 07:22:09;;;;;;;2.60;0.55;;;;;;;;;;5031433;28;20025;-56
2024/01/23 07:24:34;;;;;;;6.23;0.80;;;;;;;;;;5028756;28;20030;-56
2024/01/23 07:26:59;;;;;;;3.88;0.68;;;;;;;;;;5029252;28;20031;-57
2024/01/23 07:29:24;;;;;;;5.03;0.60;;;;;;;;;;5028104;28;20045;-57
2024/01/23 07:31:50;;;;;;;5.03;0.80;;;;;;;;;;5033468;28;20021;-58
2024/01/23 07:34:15;;;;;;;3.83;0.75;;;;;;;;;;5031609;28;20071;-56
2024/01/23 07:36:40;;;;;;;4.77;0.77;;;;;;;;;;5031396;28;20404;-56
2024/01/23 07:39:05;;;;;;;3.22;0.73;;;;;;;;;;5029542;28;20026;-56
2024/01/23 07:41:30;;;;;;;3.25;0.70;;;;;;;;;;5020018;28;20032;-57
2024/01/23 07:43:56;;;;;;;3.80;0.70;;;;;;;;;;5020371;28;20087;-57
2024/01/23 07:46:22;;;;;;;5.32;0.80;;;;;;;;;;5029181;28;20053;-56
2024/01/23 07:48:48;;;;;;;4.93;0.70;;;;;;;;;;5031622;28;20447;-57
2024/01/23 07:51:13;;;;;;;5.57;1.10;;;;;;;;;;5033375;28;20017;-57
2024/01/23 07:53:38;;;;;;;3.30;0.70;;;;;;;;;;5034975;28;20021;-56
2024/01/23 07:56:03;;;;;;;2.85;0.63;;;;;;;;;;5032517;28;20069;-56
2024/01/23 07:58:29;;;;;;;4.20;0.80;;;;;;;;;;5030587;28;20032;-56
2024/01/23 08:00:54;;;;;;;3.10;0.73;;;;;;;;;;5032263;28;20025;-58
2024/01/23 08:03:19;;;;;;;4.70;0.93;;;;;;;;;;5029273;28;20041;-56
2024/01/23 08:05:44;;;;;;;5.68;0.90;;;;;;;;;;5013409;28;20382;-57
2024/01/23 08:08:09;;;;;;;4.47;0.80;;;;;;;;;;5013055;28;20122;-56
2024/01/23 08:10:35;;;;;;;3.17;0.60;;;;;;;;;;5025945;28;20497;-56
2024/01/23 08:13:00;;;;;;;5.63;0.90;;;;;;;;;;5032986;28;20457;-56
2024/01/23 08:15:25;;;;;;;5.87;1.10;;;;;;;;;;5033084;28;20385;-56
2024/01/23 08:17:50;;;;;;;6.30;1.00;;;;;;;;;;5033453;28;20029;-56
2024/01/23 08:20:15;;;;;;;5.57;1.00;;;;;;;;;;5033177;28;20466;-56
2024/01/23 08:22:41;;;;;;;5.50;1.00;;;;;;;;;;5031752;28;20013;-57
2024/01/23 08:25:06;;;;;;;5.00;0.80;;;;;;;;;;5031750;28;20112;-57
2024/01/23 08:27:31;;;;;;;5.07;1.00;;;;;;;;;;5033779;28;20068;-56
2024/01/23 08:29:56;;;;;;;3.60;0.98;;;;;;;;;;5031926;28;20022;-56
2024/01/23 08:32:22;;;;;;;7.10;1.20;;;;;;;;;;5029497;28;20037;-57
2024/01/23 08:34:47;;;;;;;8.60;1.10;;;;;;;;;;5025370;28;20167;-56
2024/01/23 08:37:14;;;;;;;5.70;1.10;;;;;;;;;;5032105;28;20021;-56
2024/01/23 08:39:39;;;;;;;9.02;1.30;;;;;;;;;;5032973;28;20033;-58
2024/01/23 08:42:04;;;;;;;7.43;1.27;;;;;;;;;;5043395;28;20096;-56
2024/01/23 08:44:29;;;;;;;4.87;1.10;;;;;;;;;;5044669;28;20032;-57
2024/01/23 08:46:55;;;;;;;7.75;1.30;;;;;;;;;;5030680;28;20460;-56
2024/01/23 08:49:20;;;;;;;4.15;1.08;;;;;;;;;;5033924;28;20072;-56
2024/01/23 08:51:46;;;;;;;6.82;1.17;;;;;;;;;;5032823;28;20025;-57
2024/01/23 08:54:13;;;;;;;5.93;1.20;;;;;;;;;;5033450;28;20018;-57
2024/01/23 08:56:38;;;;;;;5.72;1.15;;;;;;;;;;5032665;28;20091;-56
2024/01/23 08:59:03;;;;;;;10.10;1.70;;;;;;;;;;5027598;28;20029;-58
2024/01/23 09:01:28;;;;;;;7.07;1.50;;;;;;;;;;5030886;28;20029;-57
2024/01/23 09:03:54;;;;;;;5.90;0.98;;;;;;;;;;5033551;28;20437;-57
2024/01/23 09:06:19;;;;;;;8.10;1.58;;;;;;;;;;5032277;28;20021;-55
2024/01/23 09:08:44;;;;;;;9.40;1.65;;;;;;;;;;5032850;28;20041;-57
2024/01/23 09:11:10;;;;;;;8.90;1.38;;;;;;;;;;5032190;28;20492;-56
2024/01/23 09:13:36;;;;;;;7.67;1.47;;;;;;;;;;5030990;28;20096;-56
2024/01/23 09:16:02;;;;;;;7.40;1.30;;;;;;;;;;5030654;28;20459;-56
2024/01/23 09:18:27;;;;;;;7.65;1.48;;;;;;;;;;5032046;28;20021;-56
2024/01/23 09:20:53;;;;;;;6.03;1.55;;;;;;;;;;5028990;28;20014;-56
2024/01/23 09:23:18;;;;;;;7.70;1.30;;;;;;;;;;5031690;28;20033;-57
2024/01/23 09:25:43;;;;;;;12.40;1.30;;;;;;;;;;5032818;28;20160;-56
2024/01/23 09:28:09;;;;;;;8.33;1.20;;;;;;;;;;5028733;28;20083;-57
2024/01/23 09:30:34;;;;;;;10.75;2.10;;;;;;;;;;5031249;28;20472;-56
2024/01/23 09:33:02;;;;;;;7.97;1.50;;;;;;;;;;5030818;28;20017;-56
2024/01/23 09:35:27;;;;;;;10.02;1.48;;;;;;;;;;5031759;28;20035;-56
2024/01/23 09:37:52;;;;;;;6.20;1.23;;;;;;;;;;5031980;28;20477;-57
2024/01/23 09:40:18;;;;;;;5.63;0.98;;;;;;;;;;5031778;28;20063;-57
2024/01/23 09:42:44;;;;;;;7.63;1.30;;;;;;;;;;5030162;28;20040;-58
2024/01/23 09:45:18;;;;;;;7.13;1.25;;;;;;;;;;5031706;28;20382;-56
2024/01/23 09:47:44;;;;;;;9.55;1.45;;;;;;;;;;5033329;28;20103;-56
2024/01/23 09:50:11;;;;;;;11.10;1.40;;;;;;;;;;5031982;28;20017;-57
2024/01/23 09:52:37;;;;;;;7.13;1.10;;;;;;;;;;5027474;28;20021;-58
2024/01/23 09:55:03;;;;;;;;;;;;;;;;;;5031479;28;20013;-57
2024/01/23 09:57:28;;;;;;;6.90;1.30;;;;;;;;;;5029832;28;19905;-57
2024/01/23 09:59:54;;;;;;;7.15;1.63;;;;;;;;;;5040319;28;20484;-57
2024/01/23 10:02:20;;;;;;;8.20;1.43;;;;;;;;;;5038210;28;20032;-56
2024/01/23 10:04:46;;;;;;;;;;;;;;;;;;5037233;28;20418;-56
2024/01/23 10:07:12;;;;;;;9.43;1.58;;;;;;;;;;5029624;28;20020;-56
2024/01/23 10:09:39;;;;;;;7.68;1.30;;;;;;;;;;5031830;28;20083;-58
2024/01/23 10:12:04;;;;;;;8.90;1.42;;;;;;;;;;5030666;28;20415;-57
2024/01/23 10:14:29;;;;;;;10.47;1.80;;;;;;;;;;5031664;28;20108;-57
2024/01/23 10:16:54;;;;;;;8.65;1.23;;;;;;;;;;5031951;28;20424;-56
2024/01/23 10:19:20;;;;;;;9.63;1.60;;;;;;;;;;5031989;28;20056;-56
2024/01/23 10:21:46;;;;;;;8.57;1.23;;;;;;;;;;5030781;28;20017;-56
2024/01/23 10:24:11;;;;;;;7.78;1.30;;;;;;;;;;5023864;28;20025;-56
2024/01/23 10:26:36;;;;;;;7.03;1.13;;;;;;;;;;5030639;28;20434;-57
2024/01/23 10:29:02;;;;;;;10.77;2.13;;;;;;;;;;5030353;28;20468;-58
2024/01/23 10:31:27;;;;;;;10.02;1.42;;;;;;;;;;5030845;28;20054;-56
2024/01/23 10:33:52;;;;;;;9.27;1.60;;;;;;;;;;5030770;28;20079;-58
2024/01/23 10:36:17;;;;;;;12.45;2.10;;;;;;;;;;5032053;28;20025;-60
2024/01/23 10:38:43;;;;;;;10.00;1.65;;;;;;;;;;5030727;28;20082;-57
2024/01/23 10:41:11;;;;;;;10.55;1.50;;;;;;;;;;5031751;28;20025;-56
2024/01/23 10:43:36;;;;;;;9.27;1.23;;;;;;;;;;5029943;28;20089;-56
2024/01/23 10:46:02;;;;;;;8.80;1.20;;;;;;;;;;5035278;28;20107;-57
2024/01/23 10:48:28;;;;;;;12.18;1.67;;;;;;;;;;5036105;28;20087;-57
2024/01/23 10:50:56;;;;;;;8.23;1.30;;;;;;;;;;5035818;28;20025;-58
2024/01/23 10:53:22;;;;;;;9.32;1.50;;;;;;;;;;5035338;28;20024;-56
2024/01/23 10:55:48;;;;;;;8.98;1.30;;;;;;;;;;5033647;28;20497;-57
2024/01/23 10:58:23;;;;;;;6.53;1.60;;;;;;;;;;5033985;28;20029;-58
2024/01/23 11:00:49;;;;;;;6.07;1.10;;;;;;;;;;5035062;28;20503;-57
2024/01/23 11:03:14;;;;;;;9.00;1.42;;;;;;;;;;5034872;28;20017;-59
2024/01/23 11:05:52;;;;;;;10.17;1.40;;;;;;;;;;5034884;28;20052;-56
2024/01/23 11:08:43;;;;;;;6.13;1.20;;;;;;;;;;5027785;28;20041;-56
2024/01/23 11:11:08;;;;;;;7.85;1.60;;;;;;;;;;5031749;28;20038;-58
2024/01/23 11:13:38;;;;;;;8.23;1.40;;;;;;;;;;5034299;28;20028;-56
2024/01/23 11:16:04;;;;;;;9.75;1.40;;;;;;;;;;5032769;28;20029;-56
2024/01/23 11:18:31;;;;;;;6.60;1.30;;;;;;;;;;5035657;28;20023;-57
2024/01/23 11:21:05;;;;;;;9.15;1.55;;;;;;;;;;5035863;28;20033;-57
2024/01/23 11:23:30;;;;;;;7.78;1.30;;;;;;;;;;5037674;28;20056;-58
2024/01/23 11:26:16;;;;;;;11.23;1.90;;;;;;;;;;5035096;28;20029;-56
2024/01/23 11:28:44;;;;;;;10.55;1.55;;;;;;;;;;5035465;28;20033;-57
2024/01/23 11:31:14;;;;;;;5.38;1.20;;;;;;;;;;5034550;28;20021;-57
2024/01/23 11:33:39;;;;;;;9.40;1.70;;;;;;;;;;5034689;28;20032;-56
2024/01/23 11:36:10;;;;;;;10.40;1.55;;;;;;;;;;5034881;28;20406;-59
2024/01/23 11:38:42;;;;;;;7.25;1.20;;;;;;;;;;5034693;28;20407;-56
2024/01/23 11:41:23;;;;;;;7.55;1.35;;;;;;;;;;5033460;28;20477;-59
2024/01/23 11:43:49;;;;;;;7.68;1.48;;;;;;;;;;5032322;28;20021;-56
2024/01/23 11:46:17;;;;;;;8.63;1.45;;;;;;;;;;5034767;28;20013;-57
2024/01/23 11:48:43;;;;;;;6.10;1.30;;;;;;;;;;5033707;28;20025;-57
2024/01/23 11:51:09;;;;;;;11.48;1.50;;;;;;;;;;5034074;28;20033;-56
2024/01/23 11:53:35;;;;;;;10.07;1.83;;;;;;;;;;5033852;28;20064;-56
2024/01/23 11:56:01;;;;;;;8.38;1.67;;;;;;;;;;5034605;28;20063;-57
2024/01/23 11:58:26;;;;;;;8.63;1.67;;;;;;;;;;5033282;28;20048;-56
2024/01/23 12:00:51;;;;;;;10.13;1.63;;;;;;;;;;5032775;28;20477;-58
2024/01/23 12:03:20;;;;;;;9.00;1.42;;;;;;;;;;5033668;28;20512;-57
2024/01/23 12:05:46;;;;;;;17.10;2.17;;;;;;;;;;5033313;28;20030;-57
2024/01/23 12:08:11;;;;;;;11.68;2.13;;;;;;;;;;5031067;28;20075;-57
2024/01/23 12:10:37;;;;;;;7.28;1.50;;;;;;;;;;5030628;28;20104;-58
2024/01/23 12:13:02;;;;;;;8.93;1.23;;;;;;;;;;5032902;28;20451;-56
2024/01/23 12:15:27;;;;;;;9.30;1.50;;;;;;;;;;5032214;28;20028;-57
2024/01/23 12:17:52;;;;;;;7.90;1.42;;;;;;;;;;5037690;28;20021;-56
2024/01/23 12:20:17;;;;;;;10.90;1.67;;;;;;;;;;5039911;28;20048;-58
2024/01/23 12:22:43;;;;;;;9.10;1.70;;;;;;;;;;5033409;28;20018;-56
2024/01/23 12:25:09;;;;;;;10.10;1.48;;;;;;;;;;5036870;28;20041;-56
2024/01/23 12:27:35;;;;;;;;;;;;;;;;;;5027263;28;20041;-57
2024/01/23 12:30:00;;;;;;;7.97;1.42;;;;;;;;;;5033213;28;19908;-59
2024/01/23 12:32:26;;;;;;;8.03;1.67;;;;;;;;;;5040673;28;20033;-57
2024/01/23 12:34:52;;;;;;;12.45;1.30;;;;;;;;;;5041340;28;20060;-63
2024/01/23 12:37:17;;;;;;;12.70;1.77;;;;;;;;;;5040338;28;20017;-56
2024/01/23 12:39:43;;;;;;;8.33;1.57;;;;;;;;;;5039566;28;20429;-56
2024/01/23 12:42:08;;;;;;;13.02;1.90;;;;;;;;;;5040174;28;20049;-56
2024/01/23 12:44:34;;;;;;;7.93;1.40;;;;;;;;;;5039718;28;20033;-58
2024/01/23 12:47:05;;;;;;;6.03;1.40;;;;;;;;;;5040818;28;20017;-57
2024/01/23 12:49:34;;;;;;;11.38;2.00;;;;;;;;;;5047353;28;20033;-58
2024/01/23 12:52:01;;;;;;;13.68;1.90;;;;;;;;;;5045972;28;20013;-57
2024/01/23 12:54:26;;;;;;;8.40;1.60;;;;;;;;;;5040412;28;20056;-57
2024/01/23 12:56:51;;;;;;;12.68;1.80;;;;;;;;;;5042597;28;20017;-60
2024/01/23 12:59:20;;;;;;;8.67;1.57;;;;;;;;;;5033734;28;20396;-57
2024/01/23 13:01:45;;;;;;;6.25;1.20;;;;;;;;;;5034010;28;20017;-56
2024/01/23 13:04:11;;;;;;;9.52;1.63;;;;;;;;;;5038444;28;21201;-58
2024/01/23 13:06:36;;;;;;;9.60;1.60;;;;;;;;;;5032440;28;20041;-57
2024/01/23 13:09:01;;;;;;;9.37;1.67;;;;;;;;;;5026826;28;20095;-57
2024/01/23 13:11:26;;;;;;;11.85;1.60;;;;;;;;;;5029579;28;20026;-57
2024/01/23 13:13:51;;;;;;;8.07;1.53;;;;;;;;;;5029843;28;20030;-57
2024/01/23 13:16:17;;;;;;;9.00;1.35;;;;;;;;;;5029385;28;20033;-57
2024/01/23 13:18:42;;;;;;;10.53;1.40;;;;;;;;;;5028982;28;20084;-58
2024/01/23 13:21:07;;;;;;;8.63;1.67;;;;;;;;;;5028721;28;20025;-57
2024/01/23 13:23:32;;;;;;;9.27;1.50;;;;;;;;;;5027635;28;20384;-57
2024/01/23 13:25:58;;;;;;;9.23;1.60;;;;;;;;;;5029315;28;20087;-56
2024/01/23 13:28:23;;;;;;;7.75;1.63;;;;;;;;;;5027803;28;20060;-56
2024/01/23 13:30:49;;;;;;;10.13;1.97;;;;;;;;;;5027412;28;20504;-56
2024/01/23 13:33:15;;;;;;;11.25;2.05;;;;;;;;;;5027129;28;20036;-57
2024/01/23 13:35:40;;;;;;;10.07;1.50;;;;;;;;;;5031083;28;20036;-59
2024/01/23 13:38:06;;;;;;;7.93;1.50;;;;;;;;;;5029940;28;20025;-56
2024/01/23 13:40:31;;;;;;;9.98;1.40;;;;;;;;;;5029148;28;20025;-57
2024/01/23 13:42:56;;;;;;;10.50;1.50;;;;;;;;;;5025284;28;20041;-57
2024/01/23 13:45:21;;;;;;;10.10;1.80;;;;;;;;;;5030668;28;20021;-57
2024/01/23 13:47:47;;;;;;;8.55;1.60;;;;;;;;;;5036682;28;20394;-57
2024/01/23 13:50:16;;;;;;;8.45;1.42;;;;;;;;;;5032513;28;20021;-58
2024/01/23 13:52:41;;;;;;;13.35;1.80;;;;;;;;;;5035321;28;20420;-58
2024/01/23 13:55:07;;;;;;;12.50;1.90;;;;;;;;;;5030341;28;20018;-57
2024/01/23 13:57:32;;;;;;;8.73;1.70;;;;;;;;;;5027785;28;20451;-57
2024/01/23 13:59:58;;;;;;;13.70;2.15;;;;;;;;;;5026121;28;20013;-57
2024/01/23 14:02:23;;;;;;;9.35;1.58;;;;;;;;;;5031280;28;20056;-57
2024/01/23 14:04:51;;;;;;;8.98;2.00;;;;;;;;;;5029955;28;20090;-58
2024/01/23 14:07:16;;;;;;;14.27;2.08;;;;;;;;;;5031567;28;20029;-58
2024/01/23 14:09:41;;;;;;;8.80;1.73;;;;;;;;;;5026992;28;20056;-57
2024/01/23 14:12:07;;;;;;;7.27;1.60;;;;;;;;;;5026438;28;20029;-59
2024/01/23 14:14:32;;;;;;;13.18;1.60;;;;;;;;;;5030300;28;20017;-57
2024/01/23 14:16:57;;;;;;;7.87;1.30;;;;;;;;;;5031124;28;20100;-56
2024/01/23 14:19:22;;;;;;;11.10;1.48;;;;;;;;;;5020861;28;20093;-58
2024/01/23 14:21:48;;;;;;;9.13;1.67;;;;;;;;;;5031726;28;20120;-57
2024/01/23 14:24:17;;;;;;;8.63;1.43;;;;;;;;;;5029637;28;20038;-57
2024/01/23 14:26:42;;;;;;;8.77;1.42;;;;;;;;;;5032013;28;20449;-56
2024/01/23 14:29:07;;;;;;;14.00;1.50;;;;;;;;;;5031250;28;20041;-56
2024/01/23 14:31:33;;;;;;;9.70;1.23;;;;;;;;;;5036370;28;20128;-58
2024/01/23 14:33:58;;;;;;;10.40;1.45;;;;;;;;;;5036011;28;20018;-57